Terminal Aerodrome Forecast
Issued by NWS Pocatello, ID

Home | Current Version | Previous Version | Text Only | Print | Product List | Glossary On
Versions: 1 2 3 4 5 6 7 8 9 10 11 12
847
FTUS45 KPIH 130520
TAFBYI
TAF
KBYI 130520Z 1306/1406 VRB05KT P6SM SCT080 SCT160
     FM131400 18008KT P6SM BKN040
     FM131800 25015G25KT P6SM SCT035 SCT180
     FM132100 27015G25KT P6SM BKN025
     FM140000 25010KT P6SM SCT025=

USA.gov is the U.S. government's official web portal to all federal, state and local government web resources and services.